sensor_id;sensor_type;location;lat;lon;timestamp;temperature;humidity
20070;DHT22;10195;50.868;4.382;2023-06-24T00:01:25;20.90;99.90
20070;DHT22;10195;50.868;4.382;2023-06-24T00:03:51;21.00;99.90
20070;DHT22;10195;50.868;4.382;2023-06-24T00:06:21;20.90;99.90
20070;DHT22;10195;50.868;4.382;2023-06-24T00:08:51;20.90;99.90
20070;DHT22;10195;50.868;4.382;2023-06-24T00:11:18;20.90;99.90
20070;DHT22;10195;50.868;4.382;2023-06-24T00:13:44;20.90;99.90
20070;DHT22;10195;50.868;4.382;2023-06-24T00:16:10;20.90;99.90
20070;DHT22;10195;50.868;4.382;2023-06-24T00:18:37;20.80;99.90
20070;DHT22;10195;50.868;4.382;2023-06-24T00:21:03;20.60;99.90
20070;DHT22;10195;50.868;4.382;2023-06-24T00:23:30;20.70;99.90
20070;DHT22;10195;50.868;4.382;2023-06-24T00:26:00;20.60;99.90
20070;DHT22;10195;50.868;4.382;2023-06-24T00:28:26;20.60;99.90
20070;DHT22;10195;50.868;4.382;2023-06-24T00:30:52;20.60;99.90
20070;DHT22;10195;50.868;4.382;2023-06-24T00:33:18;20.50;99.90
20070;DHT22;10195;50.868;4.382;2023-06-24T00:35:45;20.40;99.90
20070;DHT22;10195;50.868;4.382;2023-06-24T00:38:11;20.40;99.90
20070;DHT22;10195;50.868;4.382;2023-06-24T00:40:38;20.40;99.90
20070;DHT22;10195;50.868;4.382;2023-06-24T00:43:05;20.40;99.90
20070;DHT22;10195;50.868;4.382;2023-06-24T00:45:31;20.40;99.90
20070;DHT22;10195;50.868;4.382;2023-06-24T00:47:58;20.40;99.90
20070;DHT22;10195;50.868;4.382;2023-06-24T00:50:24;20.30;99.90
20070;DHT22;10195;50.868;4.382;2023-06-24T00:52:49;20.20;99.90
20070;DHT22;10195;50.868;4.382;2023-06-24T00:55:16;20.30;99.90
20070;DHT22;10195;50.868;4.382;2023-06-24T00:57:47;20.30;99.90
20070;DHT22;10195;50.868;4.382;2023-06-24T01:00:17;20.30;99.90
20070;DHT22;10195;50.868;4.382;2023-06-24T01:02:44;20.20;99.90
20070;DHT22;10195;50.868;4.382;2023-06-24T01:05:13;20.20;99.90
20070;DHT22;10195;50.868;4.382;2023-06-24T01:07:40;20.30;99.90
20070;DHT22;10195;50.868;4.382;2023-06-24T01:10:08;20.20;99.90
20070;DHT22;10195;50.868;4.382;2023-06-24T01:12:35;20.20;99.90
20070;DHT22;10195;50.868;4.382;2023-06-24T01:15:02;20.10;99.90
20070;DHT22;10195;50.868;4.382;2023-06-24T01:18:00;20.10;99.90
20070;DHT22;10195;50.868;4.382;2023-06-24T01:20:28;20.10;99.90
20070;DHT22;10195;50.868;4.382;2023-06-24T01:23:13;20.00;99.90
20070;DHT22;10195;50.868;4.382;2023-06-24T01:34:12;19.70;99.90
20070;DHT22;10195;50.868;4.382;2023-06-24T01:36:40;19.70;99.90
20070;DHT22;10195;50.868;4.382;2023-06-24T01:39:09;19.60;99.90
20070;DHT22;10195;50.868;4.382;2023-06-24T01:41:42;19.60;99.90
20070;DHT22;10195;50.868;4.382;2023-06-24T01:44:10;19.50;99.90
20070;DHT22;10195;50.868;4.382;2023-06-24T01:46:39;19.50;99.90
20070;DHT22;10195;50.868;4.382;2023-06-24T01:49:07;19.50;99.90
20070;DHT22;10195;50.868;4.382;2023-06-24T01:51:36;19.50;99.90
20070;DHT22;10195;50.868;4.382;2023-06-24T01:54:04;19.40;99.90
20070;DHT22;10195;50.868;4.382;2023-06-24T01:56:31;19.40;99.90
20070;DHT22;10195;50.868;4.382;2023-06-24T01:59:00;19.40;99.90
20070;DHT22;10195;50.868;4.382;2023-06-24T02:01:28;19.40;99.90
20070;DHT22;10195;50.868;4.382;2023-06-24T02:03:56;19.40;99.90
20070;DHT22;10195;50.868;4.382;2023-06-24T02:06:23;19.30;99.90
20070;DHT22;10195;50.868;4.382;2023-06-24T02:08:50;19.30;99.90
20070;DHT22;10195;50.868;4.382;2023-06-24T02:11:17;19.20;99.90
20070;DHT22;10195;50.868;4.382;2023-06-24T02:13:44;19.30;99.90
20070;DHT22;10195;50.868;4.382;2023-06-24T02:16:11;19.30;99.90
20070;DHT22;10195;50.868;4.382;2023-06-24T02:18:39;19.20;99.90
20070;DHT22;10195;50.868;4.382;2023-06-24T02:21:08;19.20;99.90
20070;DHT22;10195;50.868;4.382;2023-06-24T02:23:37;19.10;99.90
20070;DHT22;10195;50.868;4.382;2023-06-24T02:26:04;19.00;99.90
20070;DHT22;10195;50.868;4.382;2023-06-24T02:28:32;19.10;99.90
20070;DHT22;10195;50.868;4.382;2023-06-24T02:30:59;19.00;99.90
20070;DHT22;10195;50.868;4.382;2023-06-24T02:33:25;19.00;99.90
20070;DHT22;10195;50.868;4.382;2023-06-24T02:35:52;18.90;99.90
20070;DHT22;10195;50.868;4.382;2023-06-24T02:38:18;18.90;99.90
20070;DHT22;10195;50.868;4.382;2023-06-24T02:40:45;18.90;99.90
20070;DHT22;10195;50.868;4.382;2023-06-24T02:43:11;18.90;99.90
20070;DHT22;10195;50.868;4.382;2023-06-24T02:45:37;18.90;99.90
20070;DHT22;10195;50.868;4.382;2023-06-24T02:48:04;18.90;99.90
20070;DHT22;10195;50.868;4.382;2023-06-24T02:50:32;18.80;99.90
20070;DHT22;10195;50.868;4.382;2023-06-24T02:52:59;18.80;99.90
20070;DHT22;10195;50.868;4.382;2023-06-24T02:55:25;18.80;99.90
20070;DHT22;10195;50.868;4.382;2023-06-24T02:57:52;18.80;99.90
20070;DHT22;10195;50.868;4.382;2023-06-24T03:00:19;18.80;99.90
20070;DHT22;10195;50.868;4.382;2023-06-24T03:02:47;18.70;99.90
20070;DHT22;10195;50.868;4.382;2023-06-24T03:05:14;18.70;99.90
20070;DHT22;10195;50.868;4.382;2023-06-24T03:07:41;18.60;99.90
20070;DHT22;10195;50.868;4.382;2023-06-24T03:10:07;18.60;99.90
20070;DHT22;10195;50.868;4.382;2023-06-24T03:12:33;18.60;99.90
20070;DHT22;10195;50.868;4.382;2023-06-24T03:14:59;18.50;99.90
20070;DHT22;10195;50.868;4.382;2023-06-24T03:17:26;18.40;99.90
20070;DHT22;10195;50.868;4.382;2023-06-24T03:19:52;18.40;99.90
20070;DHT22;10195;50.868;4.382;2023-06-24T03:22:17;18.30;99.90
20070;DHT22;10195;50.868;4.382;2023-06-24T03:24:43;18.40;99.90
20070;DHT22;10195;50.868;4.382;2023-06-24T03:27:09;18.40;99.90
20070;DHT22;10195;50.868;4.382;2023-06-24T03:29:35;18.40;99.90
20070;DHT22;10195;50.868;4.382;2023-06-24T03:32:00;18.40;99.90
20070;DHT22;10195;50.868;4.382;2023-06-24T03:34:26;18.40;99.90
20070;DHT22;10195;50.868;4.382;2023-06-24T03:36:53;18.30;99.90
20070;DHT22;10195;50.868;4.382;2023-06-24T03:39:22;18.30;99.90
20070;DHT22;10195;50.868;4.382;2023-06-24T03:41:48;18.40;99.90
20070;DHT22;10195;50.868;4.382;2023-06-24T03:44:13;18.50;99.90
20070;DHT22;10195;50.868;4.382;2023-06-24T03:46:39;18.40;99.90
20070;DHT22;10195;50.868;4.382;2023-06-24T03:49:05;18.40;99.90
20070;DHT22;10195;50.868;4.382;2023-06-24T03:51:30;18.50;99.90
20070;DHT22;10195;50.868;4.382;2023-06-24T03:53:56;18.40;99.90
20070;DHT22;10195;50.868;4.382;2023-06-24T03:56:22;18.50;99.90
20070;DHT22;10195;50.868;4.382;2023-06-24T03:58:47;18.40;99.90
20070;DHT22;10195;50.868;4.382;2023-06-24T04:01:13;18.40;99.90
20070;DHT22;10195;50.868;4.382;2023-06-24T04:03:39;18.40;99.90
20070;DHT22;10195;50.868;4.382;2023-06-24T04:06:04;18.40;99.90
20070;DHT22;10195;50.868;4.382;2023-06-24T04:08:30;18.40;99.90
20070;DHT22;10195;50.868;4.382;2023-06-24T04:10:57;18.40;99.90
20070;DHT22;10195;50.868;4.382;2023-06-24T04:13:24;18.40;99.90
20070;DHT22;10195;50.868;4.382;2023-06-24T04:15:50;18.40;99.90
20070;DHT22;10195;50.868;4.382;2023-06-24T04:18:15;18.40;99.90
20070;DHT22;10195;50.868;4.382;2023-06-24T04:20:41;18.40;99.90
20070;DHT22;10195;50.868;4.382;2023-06-24T04:23:06;18.50;99.90
20070;DHT22;10195;50.868;4.382;2023-06-24T04:25:34;18.60;99.90
20070;DHT22;10195;50.868;4.382;2023-06-24T04:28:01;18.60;99.90
20070;DHT22;10195;50.868;4.382;2023-06-24T04:30:26;18.60;99.90
20070;DHT22;10195;50.868;4.382;2023-06-24T04:32:52;18.60;99.90
20070;DHT22;10195;50.868;4.382;2023-06-24T04:35:18;18.70;99.90
20070;DHT22;10195;50.868;4.382;2023-06-24T04:37:43;18.60;99.90
20070;DHT22;10195;50.868;4.382;2023-06-24T04:40:09;18.60;99.90
20070;DHT22;10195;50.868;4.382;2023-06-24T04:42:35;18.50;99.90
20070;DHT22;10195;50.868;4.382;2023-06-24T04:45:01;18.50;99.90
20070;DHT22;10195;50.868;4.382;2023-06-24T04:47:31;18.30;99.90
20070;DHT22;10195;50.868;4.382;2023-06-24T04:49:56;18.40;99.90
20070;DHT22;10195;50.868;4.382;2023-06-24T04:52:23;18.40;99.90
20070;DHT22;10195;50.868;4.382;2023-06-24T04:54:49;18.40;99.90
20070;DHT22;10195;50.868;4.382;2023-06-24T04:57:29;18.40;99.90
20070;DHT22;10195;50.868;4.382;2023-06-24T04:59:56;18.40;99.90
20070;DHT22;10195;50.868;4.382;2023-06-24T05:02:22;18.40;99.90
20070;DHT22;10195;50.868;4.382;2023-06-24T05:04:47;18.50;99.90
20070;DHT22;10195;50.868;4.382;2023-06-24T05:07:13;18.50;99.90
20070;DHT22;10195;50.868;4.382;2023-06-24T05:09:39;18.50;99.90
20070;DHT22;10195;50.868;4.382;2023-06-24T05:12:05;18.40;99.90
20070;DHT22;10195;50.868;4.382;2023-06-24T05:14:34;18.40;99.90
20070;DHT22;10195;50.868;4.382;2023-06-24T05:17:00;18.50;99.90
20070;DHT22;10195;50.868;4.382;2023-06-24T05:19:26;18.50;99.90
20070;DHT22;10195;50.868;4.382;2023-06-24T05:21:51;18.50;99.90
20070;DHT22;10195;50.868;4.382;2023-06-24T05:24:17;18.60;99.90
20070;DHT22;10195;50.868;4.382;2023-06-24T05:26:44;18.60;99.90
20070;DHT22;10195;50.868;4.382;2023-06-24T05:29:10;18.80;99.90
20070;DHT22;10195;50.868;4.382;2023-06-24T05:31:37;18.80;99.90
20070;DHT22;10195;50.868;4.382;2023-06-24T05:34:03;18.90;99.90
20070;DHT22;10195;50.868;4.382;2023-06-24T05:36:28;19.30;99.90
20070;DHT22;10195;50.868;4.382;2023-06-24T05:38:54;20.10;99.90
20070;DHT22;10195;50.868;4.382;2023-06-24T05:41:20;21.20;99.90
20070;DHT22;10195;50.868;4.382;2023-06-24T05:43:45;22.50;99.90
20070;DHT22;10195;50.868;4.382;2023-06-24T05:46:11;23.70;99.90
20070;DHT22;10195;50.868;4.382;2023-06-24T05:48:37;24.50;99.90
20070;DHT22;10195;50.868;4.382;2023-06-24T05:51:02;25.00;99.90
20070;DHT22;10195;50.868;4.382;2023-06-24T05:53:28;25.10;99.90
20070;DHT22;10195;50.868;4.382;2023-06-24T05:55:54;25.30;99.90
20070;DHT22;10195;50.868;4.382;2023-06-24T05:58:19;25.50;99.90
20070;DHT22;10195;50.868;4.382;2023-06-24T06:00:45;26.40;99.90
20070;DHT22;10195;50.868;4.382;2023-06-24T06:03:11;27.20;99.90
20070;DHT22;10195;50.868;4.382;2023-06-24T06:05:36;27.30;99.90
20070;DHT22;10195;50.868;4.382;2023-06-24T06:08:02;27.30;99.90
20070;DHT22;10195;50.868;4.382;2023-06-24T06:10:28;27.90;99.90
20070;DHT22;10195;50.868;4.382;2023-06-24T06:12:53;27.60;99.90
20070;DHT22;10195;50.868;4.382;2023-06-24T06:15:19;26.70;99.90
20070;DHT22;10195;50.868;4.382;2023-06-24T06:17:46;26.90;99.90
20070;DHT22;10195;50.868;4.382;2023-06-24T06:20:12;27.20;99.90
20070;DHT22;10195;50.868;4.382;2023-06-24T06:22:37;27.50;99.90
20070;DHT22;10195;50.868;4.382;2023-06-24T06:25:07;27.00;99.90
20070;DHT22;10195;50.868;4.382;2023-06-24T06:27:33;27.00;99.90
20070;DHT22;10195;50.868;4.382;2023-06-24T06:29:59;27.50;99.90
20070;DHT22;10195;50.868;4.382;2023-06-24T06:32:25;28.50;99.90
20070;DHT22;10195;50.868;4.382;2023-06-24T06:34:50;29.20;99.90
20070;DHT22;10195;50.868;4.382;2023-06-24T06:37:16;29.40;99.90
20070;DHT22;10195;50.868;4.382;2023-06-24T06:39:41;28.70;99.90
20070;DHT22;10195;50.868;4.382;2023-06-24T06:42:07;29.00;99.90
20070;DHT22;10195;50.868;4.382;2023-06-24T06:44:33;29.30;99.90
20070;DHT22;10195;50.868;4.382;2023-06-24T06:46:58;29.10;99.90
20070;DHT22;10195;50.868;4.382;2023-06-24T06:49:24;28.20;99.90
20070;DHT22;10195;50.868;4.382;2023-06-24T06:51:51;28.90;99.90
20070;DHT22;10195;50.868;4.382;2023-06-24T06:54:17;29.20;99.90
20070;DHT22;10195;50.868;4.382;2023-06-24T06:56:43;28.60;99.90
20070;DHT22;10195;50.868;4.382;2023-06-24T06:59:08;28.50;99.90
20070;DHT22;10195;50.868;4.382;2023-06-24T07:01:34;28.50;99.90
20070;DHT22;10195;50.868;4.382;2023-06-24T07:03:59;28.50;99.90
20070;DHT22;10195;50.868;4.382;2023-06-24T07:06:25;29.10;99.90
20070;DHT22;10195;50.868;4.382;2023-06-24T07:08:50;28.90;99.90
20070;DHT22;10195;50.868;4.382;2023-06-24T07:11:16;29.20;99.90
20070;DHT22;10195;50.868;4.382;2023-06-24T07:13:42;29.50;99.90
20070;DHT22;10195;50.868;4.382;2023-06-24T07:16:07;29.40;99.90
20070;DHT22;10195;50.868;4.382;2023-06-24T07:18:33;29.30;99.90
20070;DHT22;10195;50.868;4.382;2023-06-24T07:21:00;29.40;99.90
20070;DHT22;10195;50.868;4.382;2023-06-24T07:23:25;29.60;99.90
20070;DHT22;10195;50.868;4.382;2023-06-24T07:25:51;29.90;99.90
20070;DHT22;10195;50.868;4.382;2023-06-24T07:28:17;29.80;99.90
20070;DHT22;10195;50.868;4.382;2023-06-24T07:30:42;29.60;99.90
20070;DHT22;10195;50.868;4.382;2023-06-24T07:33:09;29.90;99.60
20070;DHT22;10195;50.868;4.382;2023-06-24T07:35:35;29.00;99.90
20070;DHT22;10195;50.868;4.382;2023-06-24T07:38:01;29.00;99.90
20070;DHT22;10195;50.868;4.382;2023-06-24T07:40:27;29.20;99.90
20070;DHT22;10195;50.868;4.382;2023-06-24T07:42:53;30.00;99.90
20070;DHT22;10195;50.868;4.382;2023-06-24T07:45:19;30.60;99.50
20070;DHT22;10195;50.868;4.382;2023-06-24T07:47:45;31.00;97.30
20070;DHT22;10195;50.868;4.382;2023-06-24T07:50:11;31.00;96.60
20070;DHT22;10195;50.868;4.382;2023-06-24T07:52:37;30.50;95.60
20070;DHT22;10195;50.868;4.382;2023-06-24T07:55:03;29.60;96.80
20070;DHT22;10195;50.868;4.382;2023-06-24T07:57:29;28.90;99.00
20070;DHT22;10195;50.868;4.382;2023-06-24T07:59:55;29.50;98.50
20070;DHT22;10195;50.868;4.382;2023-06-24T08:02:21;29.10;97.70
20070;DHT22;10195;50.868;4.382;2023-06-24T08:04:47;29.50;98.30
20070;DHT22;10195;50.868;4.382;2023-06-24T08:07:12;29.80;95.40
20070;DHT22;10195;50.868;4.382;2023-06-24T08:09:38;30.00;96.00
20070;DHT22;10195;50.868;4.382;2023-06-24T08:12:04;30.30;95.00
20070;DHT22;10195;50.868;4.382;2023-06-24T08:14:30;28.70;96.60
20070;DHT22;10195;50.868;4.382;2023-06-24T08:16:55;28.40;99.70
20070;DHT22;10195;50.868;4.382;2023-06-24T08:19:21;28.60;98.40
20070;DHT22;10195;50.868;4.382;2023-06-24T08:21:46;29.60;96.90
20070;DHT22;10195;50.868;4.382;2023-06-24T08:24:12;29.50;96.10
20070;DHT22;10195;50.868;4.382;2023-06-24T08:26:38;29.40;96.10
20070;DHT22;10195;50.868;4.382;2023-06-24T08:29:03;29.90;96.30
20070;DHT22;10195;50.868;4.382;2023-06-24T08:31:29;29.30;95.50
20070;DHT22;10195;50.868;4.382;2023-06-24T08:33:56;28.70;97.60
20070;DHT22;10195;50.868;4.382;2023-06-24T08:36:27;29.40;96.90
20070;DHT22;10195;50.868;4.382;2023-06-24T08:38:53;30.20;96.00
20070;DHT22;10195;50.868;4.382;2023-06-24T08:41:18;30.50;94.60
20070;DHT22;10195;50.868;4.382;2023-06-24T08:43:44;31.00;95.00
20070;DHT22;10195;50.868;4.382;2023-06-24T08:46:10;31.50;93.10
20070;DHT22;10195;50.868;4.382;2023-06-24T08:48:39;31.20;91.30
20070;DHT22;10195;50.868;4.382;2023-06-24T08:51:08;31.10;91.50
20070;DHT22;10195;50.868;4.382;2023-06-24T08:53:37;31.20;90.90
20070;DHT22;10195;50.868;4.382;2023-06-24T08:56:04;31.70;89.60
20070;DHT22;10195;50.868;4.382;2023-06-24T08:58:30;31.00;90.10
20070;DHT22;10195;50.868;4.382;2023-06-24T09:00:56;31.80;90.70
20070;DHT22;10195;50.868;4.382;2023-06-24T09:03:22;32.50;90.00
20070;DHT22;10195;50.868;4.382;2023-06-24T09:05:48;32.30;87.60
20070;DHT22;10195;50.868;4.382;2023-06-24T09:08:14;31.70;88.40
20070;DHT22;10195;50.868;4.382;2023-06-24T09:10:41;30.90;90.00
20070;DHT22;10195;50.868;4.382;2023-06-24T09:13:07;31.20;89.10
20070;DHT22;10195;50.868;4.382;2023-06-24T09:15:34;31.00;88.20
20070;DHT22;10195;50.868;4.382;2023-06-24T09:18:00;31.40;88.10
20070;DHT22;10195;50.868;4.382;2023-06-24T09:20:29;31.90;85.70
20070;DHT22;10195;50.868;4.382;2023-06-24T09:23:03;31.90;84.50
20070;DHT22;10195;50.868;4.382;2023-06-24T09:25:30;31.70;85.50
20070;DHT22;10195;50.868;4.382;2023-06-24T09:28:00;32.20;83.50
20070;DHT22;10195;50.868;4.382;2023-06-24T09:30:26;32.00;79.90
20070;DHT22;10195;50.868;4.382;2023-06-24T09:32:52;31.10;82.90
20070;DHT22;10195;50.868;4.382;2023-06-24T09:35:22;30.50;82.80
20070;DHT22;10195;50.868;4.382;2023-06-24T09:37:55;30.60;85.00
20070;DHT22;10195;50.868;4.382;2023-06-24T09:40:22;30.60;87.20
20070;DHT22;10195;50.868;4.382;2023-06-24T09:42:55;31.20;85.30
20070;DHT22;10195;50.868;4.382;2023-06-24T09:45:26;31.00;84.90
20070;DHT22;10195;50.868;4.382;2023-06-24T09:47:53;30.70;83.00
20070;DHT22;10195;50.868;4.382;2023-06-24T09:50:19;30.80;85.10
20070;DHT22;10195;50.868;4.382;2023-06-24T09:52:46;30.70;84.30
20070;DHT22;10195;50.868;4.382;2023-06-24T09:55:16;30.30;83.80
20070;DHT22;10195;50.868;4.382;2023-06-24T09:57:46;29.90;81.70
20070;DHT22;10195;50.868;4.382;2023-06-24T10:00:17;29.20;82.50
20070;DHT22;10195;50.868;4.382;2023-06-24T10:02:44;28.90;85.00
20070;DHT22;10195;50.868;4.382;2023-06-24T10:05:11;28.70;86.90
20070;DHT22;10195;50.868;4.382;2023-06-24T10:07:39;28.60;88.30
20070;DHT22;10195;50.868;4.382;2023-06-24T10:10:05;28.70;89.30
20070;DHT22;10195;50.868;4.382;2023-06-24T10:12:32;28.90;87.20
20070;DHT22;10195;50.868;4.382;2023-06-24T10:14:59;28.80;89.10
20070;DHT22;10195;50.868;4.382;2023-06-24T10:17:26;28.50;87.80
20070;DHT22;10195;50.868;4.382;2023-06-24T10:19:52;28.10;88.60
20070;DHT22;10195;50.868;4.382;2023-06-24T10:22:24;28.10;86.10
20070;DHT22;10195;50.868;4.382;2023-06-24T10:24:52;27.90;87.00
20070;DHT22;10195;50.868;4.382;2023-06-24T10:27:19;27.80;89.40
20070;DHT22;10195;50.868;4.382;2023-06-24T10:29:50;28.00;89.70
20070;DHT22;10195;50.868;4.382;2023-06-24T10:32:18;27.80;90.30
20070;DHT22;10195;50.868;4.382;2023-06-24T10:34:45;27.80;89.90
20070;DHT22;10195;50.868;4.382;2023-06-24T10:39:52;26.90;90.10
20070;DHT22;10195;50.868;4.382;2023-06-24T10:44:58;26.60;93.40
20070;DHT22;10195;50.868;4.382;2023-06-24T10:47:25;26.90;92.90
20070;DHT22;10195;50.868;4.382;2023-06-24T10:49:51;27.20;91.60
20070;DHT22;10195;50.868;4.382;2023-06-24T10:52:21;26.90;91.30
20070;DHT22;10195;50.868;4.382;2023-06-24T10:54:48;27.00;92.50
20070;DHT22;10195;50.868;4.382;2023-06-24T10:57:15;27.10;92.90
20070;DHT22;10195;50.868;4.382;2023-06-24T10:59:47;27.30;93.20
20070;DHT22;10195;50.868;4.382;2023-06-24T11:02:17;26.70;92.70
20070;DHT22;10195;50.868;4.382;2023-06-24T11:04:51;26.90;93.40
20070;DHT22;10195;50.868;4.382;2023-06-24T11:07:19;27.10;92.60
20070;DHT22;10195;50.868;4.382;2023-06-24T11:09:52;26.90;93.30
20070;DHT22;10195;50.868;4.382;2023-06-24T11:12:19;26.70;94.00
20070;DHT22;10195;50.868;4.382;2023-06-24T11:14:48;26.80;92.80
20070;DHT22;10195;50.868;4.382;2023-06-24T11:17:13;27.10;92.30
20070;DHT22;10195;50.868;4.382;2023-06-24T11:19:39;27.50;93.80
20070;DHT22;10195;50.868;4.382;2023-06-24T11:22:07;27.80;94.10
20070;DHT22;10195;50.868;4.382;2023-06-24T11:24:34;27.90;91.90
20070;DHT22;10195;50.868;4.382;2023-06-24T11:27:00;27.90;90.90
20070;DHT22;10195;50.868;4.382;2023-06-24T11:29:30;27.90;91.10
20070;DHT22;10195;50.868;4.382;2023-06-24T11:31:56;27.80;89.50
20070;DHT22;10195;50.868;4.382;2023-06-24T11:34:22;27.70;90.40
20070;DHT22;10195;50.868;4.382;2023-06-24T11:36:48;27.90;89.50
20070;DHT22;10195;50.868;4.382;2023-06-24T11:39:40;27.70;91.60
20070;DHT22;10195;50.868;4.382;2023-06-24T11:42:07;27.50;90.60
20070;DHT22;10195;50.868;4.382;2023-06-24T11:44:42;27.50;92.40
20070;DHT22;10195;50.868;4.382;2023-06-24T11:47:09;27.60;93.50
20070;DHT22;10195;50.868;4.382;2023-06-24T11:50:05;27.60;93.70
20070;DHT22;10195;50.868;4.382;2023-06-24T11:52:49;27.70;93.90
20070;DHT22;10195;50.868;4.382;2023-06-24T11:58:03;27.90;93.40
20070;DHT22;10195;50.868;4.382;2023-06-24T12:00:37;27.90;92.90
20070;DHT22;10195;50.868;4.382;2023-06-24T12:03:08;28.00;93.40
20070;DHT22;10195;50.868;4.382;2023-06-24T12:05:35;28.10;93.90
20070;DHT22;10195;50.868;4.382;2023-06-24T12:08:05;27.30;93.40
20070;DHT22;10195;50.868;4.382;2023-06-24T12:10:32;27.10;95.90
20070;DHT22;10195;50.868;4.382;2023-06-24T12:13:00;27.10;96.00
20070;DHT22;10195;50.868;4.382;2023-06-24T12:15:26;27.50;95.20
20070;DHT22;10195;50.868;4.382;2023-06-24T12:17:52;27.20;95.80
20070;DHT22;10195;50.868;4.382;2023-06-24T12:20:18;27.40;95.00
20070;DHT22;10195;50.868;4.382;2023-06-24T12:22:47;27.70;94.30
20070;DHT22;10195;50.868;4.382;2023-06-24T12:25:13;28.00;95.40
20070;DHT22;10195;50.868;4.382;2023-06-24T12:27:39;28.10;93.50
20070;DHT22;10195;50.868;4.382;2023-06-24T12:30:06;28.00;93.00
20070;DHT22;10195;50.868;4.382;2023-06-24T12:32:32;28.10;94.70
20070;DHT22;10195;50.868;4.382;2023-06-24T12:34:58;28.30;94.40
20070;DHT22;10195;50.868;4.382;2023-06-24T12:37:23;28.40;93.00
20070;DHT22;10195;50.868;4.382;2023-06-24T12:39:49;28.60;93.80
20070;DHT22;10195;50.868;4.382;2023-06-24T12:42:16;28.70;92.50
20070;DHT22;10195;50.868;4.382;2023-06-24T12:44:42;28.70;93.10
20070;DHT22;10195;50.868;4.382;2023-06-24T12:47:08;28.70;91.70
20070;DHT22;10195;50.868;4.382;2023-06-24T12:49:33;28.70;91.30
20070;DHT22;10195;50.868;4.382;2023-06-24T12:51:59;28.90;91.20
20070;DHT22;10195;50.868;4.382;2023-06-24T12:54:24;28.70;91.30
20070;DHT22;10195;50.868;4.382;2023-06-24T12:56:50;28.70;91.70
20070;DHT22;10195;50.868;4.382;2023-06-24T12:59:16;28.60;91.10
20070;DHT22;10195;50.868;4.382;2023-06-24T13:01:41;28.30;91.40
20070;DHT22;10195;50.868;4.382;2023-06-24T13:04:10;28.30;90.70
20070;DHT22;10195;50.868;4.382;2023-06-24T13:06:36;28.30;90.70
20070;DHT22;10195;50.868;4.382;2023-06-24T13:09:02;28.50;90.50
20070;DHT22;10195;50.868;4.382;2023-06-24T13:11:28;28.60;89.40
20070;DHT22;10195;50.868;4.382;2023-06-24T13:13:54;28.60;90.00
20070;DHT22;10195;50.868;4.382;2023-06-24T13:16:20;28.70;90.40
20070;DHT22;10195;50.868;4.382;2023-06-24T13:18:46;28.60;90.90
20070;DHT22;10195;50.868;4.382;2023-06-24T13:21:12;28.50;91.30
20070;DHT22;10195;50.868;4.382;2023-06-24T13:23:39;28.20;92.00
20070;DHT22;10195;50.868;4.382;2023-06-24T13:26:06;28.00;93.40
20070;DHT22;10195;50.868;4.382;2023-06-24T13:28:31;28.10;92.20
20070;DHT22;10195;50.868;4.382;2023-06-24T13:30:57;28.30;91.60
20070;DHT22;10195;50.868;4.382;2023-06-24T13:33:23;28.40;91.40
20070;DHT22;10195;50.868;4.382;2023-06-24T13:35:49;28.50;91.70
20070;DHT22;10195;50.868;4.382;2023-06-24T13:38:15;28.70;91.10
20070;DHT22;10195;50.868;4.382;2023-06-24T13:40:40;28.70;89.20
20070;DHT22;10195;50.868;4.382;2023-06-24T13:43:06;28.30;91.20
20070;DHT22;10195;50.868;4.382;2023-06-24T13:45:32;28.40;90.40
20070;DHT22;10195;50.868;4.382;2023-06-24T13:47:57;28.40;90.30
20070;DHT22;10195;50.868;4.382;2023-06-24T13:50:23;28.30;90.00
20070;DHT22;10195;50.868;4.382;2023-06-24T13:52:48;28.40;90.70
20070;DHT22;10195;50.868;4.382;2023-06-24T13:55:14;28.60;90.40
20070;DHT22;10195;50.868;4.382;2023-06-24T13:57:40;28.50;90.60
20070;DHT22;10195;50.868;4.382;2023-06-24T14:00:06;28.60;90.90
20070;DHT22;10195;50.868;4.382;2023-06-24T14:02:32;28.70;90.40
20070;DHT22;10195;50.868;4.382;2023-06-24T14:04:58;28.70;90.50
20070;DHT22;10195;50.868;4.382;2023-06-24T14:07:23;28.70;90.10
20070;DHT22;10195;50.868;4.382;2023-06-24T14:09:50;28.50;88.70
20070;DHT22;10195;50.868;4.382;2023-06-24T14:12:15;28.30;88.40
20070;DHT22;10195;50.868;4.382;2023-06-24T14:14:41;28.10;90.10
20070;DHT22;10195;50.868;4.382;2023-06-24T14:17:07;28.10;90.20
20070;DHT22;10195;50.868;4.382;2023-06-24T14:19:38;28.40;91.30
20070;DHT22;10195;50.868;4.382;2023-06-24T14:22:05;28.30;91.90
20070;DHT22;10195;50.868;4.382;2023-06-24T14:24:31;28.50;92.60
20070;DHT22;10195;50.868;4.382;2023-06-24T14:26:57;28.60;91.70
20070;DHT22;10195;50.868;4.382;2023-06-24T14:29:23;28.70;91.20
20070;DHT22;10195;50.868;4.382;2023-06-24T14:31:49;28.70;91.00
20070;DHT22;10195;50.868;4.382;2023-06-24T14:34:14;28.90;91.40
20070;DHT22;10195;50.868;4.382;2023-06-24T14:36:40;29.00;90.60
20070;DHT22;10195;50.868;4.382;2023-06-24T14:39:06;29.30;90.20
20070;DHT22;10195;50.868;4.382;2023-06-24T14:41:32;28.50;88.70
20070;DHT22;10195;50.868;4.382;2023-06-24T14:43:57;28.30;90.90
20070;DHT22;10195;50.868;4.382;2023-06-24T14:46:23;28.10;91.40
20070;DHT22;10195;50.868;4.382;2023-06-24T14:48:48;28.10;90.90
20070;DHT22;10195;50.868;4.382;2023-06-24T14:51:14;27.90;91.90
20070;DHT22;10195;50.868;4.382;2023-06-24T14:53:40;27.90;91.50
20070;DHT22;10195;50.868;4.382;2023-06-24T14:56:05;27.60;91.40
20070;DHT22;10195;50.868;4.382;2023-06-24T14:58:31;27.60;92.40
20070;DHT22;10195;50.868;4.382;2023-06-24T15:00:57;27.70;92.00
20070;DHT22;10195;50.868;4.382;2023-06-24T15:03:22;27.90;91.20
20070;DHT22;10195;50.868;4.382;2023-06-24T15:05:48;28.00;91.80
20070;DHT22;10195;50.868;4.382;2023-06-24T15:08:14;28.00;91.60
20070;DHT22;10195;50.868;4.382;2023-06-24T15:10:39;28.20;91.20
20070;DHT22;10195;50.868;4.382;2023-06-24T15:13:05;28.00;90.70
20070;DHT22;10195;50.868;4.382;2023-06-24T15:15:31;28.00;91.50
20070;DHT22;10195;50.868;4.382;2023-06-24T15:17:57;28.10;92.30
20070;DHT22;10195;50.868;4.382;2023-06-24T15:20:22;28.30;90.00
20070;DHT22;10195;50.868;4.382;2023-06-24T15:22:48;28.50;90.50
20070;DHT22;10195;50.868;4.382;2023-06-24T15:25:14;28.60;90.60
20070;DHT22;10195;50.868;4.382;2023-06-24T15:27:39;28.80;89.20
20070;DHT22;10195;50.868;4.382;2023-06-24T15:30:06;28.70;88.20
20070;DHT22;10195;50.868;4.382;2023-06-24T15:32:31;28.50;90.60
20070;DHT22;10195;50.868;4.382;2023-06-24T15:34:57;28.30;90.60
20070;DHT22;10195;50.868;4.382;2023-06-24T15:37:23;28.50;90.40
20070;DHT22;10195;50.868;4.382;2023-06-24T15:39:48;28.60;90.00
20070;DHT22;10195;50.868;4.382;2023-06-24T15:42:14;28.50;91.10
20070;DHT22;10195;50.868;4.382;2023-06-24T15:44:40;28.50;90.70